Time;durP1;ratioP1;P1;durP2;ratioP2;P2;SDS_P1;SDS_P2;PMS_P1;PMS_P2;Temp;Humidity;BMP_temperature;BMP_pressure;BME280_temperature;BME280_humidity;BME280_pressure;Samples;Min_cycle;Max_cycle;Signal;HPM_P1;HPM_P2
2023/01/11 16:12:06;;;;;;;6.47;2.47;;;8.30;99.90;;;;;;5111909;27;20495;-68
2023/01/11 16:14:54;;;;;;;12.15;3.50;;;8.30;99.90;;;;;;5109409;28;20427;-69
2023/01/11 16:17:23;;;;;;;13.82;2.90;;;8.30;99.90;;;;;;5108492;28;20464;-68
2023/01/11 16:19:55;;;;;;;16.50;3.85;;;8.50;99.90;;;;;;5109604;28;20031;-68
2023/01/11 16:22:24;;;;;;;14.02;3.10;;;8.60;99.90;;;;;;5107412;28;20485;-67
2023/01/11 16:24:55;;;;;;;9.07;3.22;;;8.80;99.90;;;;;;5097312;28;20509;-69
2023/01/11 16:27:27;;;;;;;12.70;2.95;;;9.00;99.90;;;;;;5069284;28;20025;-68
2023/01/11 16:29:53;;;;;;;7.85;3.00;;;9.10;99.90;;;;;;5068966;28;20035;-67
2023/01/11 16:32:33;;;;;;;10.00;3.00;;;9.20;99.90;;;;;;5068309;28;20029;-67
2023/01/11 16:35:00;;;;;;;10.35;2.90;;;9.20;99.90;;;;;;5090643;28;20027;-67
2023/01/11 16:37:37;;;;;;;16.17;3.05;;;9.30;99.90;;;;;;5108801;28;20019;-67
2023/01/11 16:40:23;;;;;;;8.25;2.33;;;9.30;99.90;;;;;;5108631;28;20028;-67
2023/01/11 16:43:05;;;;;;;8.88;2.85;;;9.30;99.90;;;;;;5108894;28;20521;-68
2023/01/11 16:45:42;;;;;;;9.15;2.47;;;9.30;99.90;;;;;;5108640;27;20035;-67
2023/01/11 16:48:25;;;;;;;8.38;2.60;;;9.30;99.90;;;;;;5096765;28;20028;-67
2023/01/11 16:51:15;;;;;;;7.70;2.30;;;9.30;99.90;;;;;;5087667;28;20024;-67
2023/01/11 16:53:43;;;;;;;10.85;2.67;;;9.30;99.90;;;;;;5109027;28;20027;-68
2023/01/11 16:56:17;;;;;;;10.40;2.95;;;9.30;99.90;;;;;;5108897;28;20024;-67
2023/01/11 16:59:00;;;;;;;8.80;1.98;;;9.20;99.90;;;;;;5107495;28;20082;-68
2023/01/11 17:01:26;;;;;;;8.13;2.05;;;9.20;99.90;;;;;;5109102;28;20019;-68
2023/01/11 17:03:53;;;;;;;9.18;2.33;;;9.20;99.90;;;;;;5108214;28;21145;-67
2023/01/11 17:06:21;;;;;;;7.15;1.77;;;9.20;99.90;;;;;;5107358;28;20023;-67
2023/01/11 17:08:51;;;;;;;9.45;2.15;;;9.20;99.90;;;;;;5107328;28;20031;-67
2023/01/11 17:11:49;;;;;;;8.45;2.22;;;9.20;99.90;;;;;;5106958;28;20720;-67
2023/01/11 17:14:39;;;;;;;13.77;2.72;;;9.20;99.90;;;;;;5094264;28;20488;-67
2023/01/11 17:17:09;;;;;;;8.70;2.38;;;9.30;99.90;;;;;;5108650;28;20046;-68
2023/01/11 17:19:41;;;;;;;12.32;1.90;;;9.30;99.90;;;;;;5083176;28;20024;-67
2023/01/11 17:22:17;;;;;;;8.98;2.22;;;9.30;99.90;;;;;;5099299;28;20155;-68
2023/01/11 17:24:49;;;;;;;11.05;2.65;;;9.40;99.90;;;;;;5093286;28;20024;-68
2023/01/11 17:27:20;;;;;;;7.57;1.52;;;9.40;99.90;;;;;;5092904;28;20026;-68
2023/01/11 17:29:46;;;;;;;7.73;1.93;;;9.50;99.90;;;;;;5092972;28;20024;-68
2023/01/11 17:32:22;;;;;;;8.40;2.50;;;9.50;99.90;;;;;;5095116;28;20111;-69
2023/01/11 17:34:49;;;;;;;12.80;2.47;;;9.60;99.90;;;;;;5092731;28;20410;-67
2023/01/11 17:37:17;;;;;;;7.32;1.90;;;9.60;99.90;;;;;;5093297;28;20508;-68
2023/01/11 17:39:48;;;;;;;11.60;2.67;;;9.60;99.90;;;;;;5094437;28;20016;-69
2023/01/11 17:45:14;;;;;;;6.93;2.03;;;9.60;99.90;;;;;;5094438;28;20036;-70
2023/01/11 17:47:42;;;;;;;8.80;2.00;;;9.60;99.90;;;;;;5092030;28;20463;-68
2023/01/11 17:50:25;;;;;;;11.48;3.05;;;9.50;99.90;;;;;;5094612;28;20066;-69
2023/01/11 17:53:05;;;;;;;9.82;2.40;;;9.50;99.90;;;;;;5092353;28;20027;-66
2023/01/11 17:55:30;;;;;;;12.82;2.40;;;9.50;99.90;;;;;;5093901;28;20141;-70
2023/01/11 17:58:15;;;;;;;12.32;1.98;;;9.50;99.90;;;;;;5093948;28;20031;-67
2023/01/11 18:00:43;;;;;;;9.02;2.80;;;9.50;99.90;;;;;;5059054;28;20374;-72
2023/01/11 18:03:17;;;;;;;7.75;2.10;;;9.50;99.90;;;;;;5073417;28;20480;-70
2023/01/11 18:05:43;;;;;;;12.02;2.88;;;9.50;99.90;;;;;;5093688;28;20027;-66
2023/01/11 18:08:20;;;;;;;9.98;2.05;;;9.50;99.90;;;;;;5066688;28;20056;-71
2023/01/11 18:10:55;;;;;;;9.30;2.40;;;9.40;99.90;;;;;;5081782;28;20048;-68
2023/01/11 18:13:25;;;;;;;5.82;1.70;;;9.40;99.90;;;;;;5072533;28;20074;-65
2023/01/11 18:15:51;;;;;;;13.00;2.47;;;9.40;99.90;;;;;;5072160;28;20770;-65
2023/01/11 18:18:43;;;;;;;11.77;2.80;;;9.40;99.90;;;;;;5077103;28;20070;-65
2023/01/11 18:21:24;;;;;;;8.38;2.67;;;9.40;99.90;;;;;;5051054;28;20055;-67
2023/01/11 18:24:08;;;;;;;8.27;2.53;;;9.50;99.90;;;;;;5093316;28;20520;-67
2023/01/11 18:26:46;;;;;;;12.70;2.10;;;9.40;99.90;;;;;;5093267;28;20134;-67
2023/01/11 18:29:38;;;;;;;6.30;1.98;;;9.50;99.90;;;;;;5093433;28;20020;-67
2023/01/11 18:32:07;;;;;;;16.27;2.65;;;9.50;99.90;;;;;;5090704;28;20036;-66
2023/01/11 18:34:33;;;;;;;7.57;2.35;;;9.50;99.90;;;;;;5092808;28;20038;-67
2023/01/11 18:37:00;;;;;;;9.60;2.63;;;9.50;99.90;;;;;;5093327;28;20099;-67
2023/01/11 18:39:26;;;;;;;11.65;2.97;;;9.50;99.90;;;;;;5063233;28;20101;-72
2023/01/11 18:42:11;;;;;;;11.43;3.20;;;9.50;99.90;;;;;;5085090;28;20036;-67
2023/01/11 18:44:39;;;;;;;6.22;2.42;;;9.60;99.90;;;;;;5072902;28;20017;-67
2023/01/11 18:47:34;;;;;;;11.63;2.55;;;9.60;99.90;;;;;;5072129;28;20494;-65
2023/01/11 18:49:59;;;;;;;8.15;2.58;;;9.50;99.90;;;;;;5072210;28;20041;-65
2023/01/11 18:52:29;;;;;;;8.07;2.28;;;9.50;99.90;;;;;;5072819;28;20525;-64
2023/01/11 18:54:56;;;;;;;8.77;2.90;;;9.40;99.90;;;;;;5073269;28;20078;-65
2023/01/11 18:57:23;;;;;;;14.00;2.83;;;9.50;99.90;;;;;;5073252;28;20024;-66
2023/01/11 18:59:51;;;;;;;10.35;2.65;;;9.40;99.90;;;;;;5072356;28;20025;-66
2023/01/11 19:02:40;;;;;;;8.80;2.10;;;9.40;99.90;;;;;;5081787;28;20024;-66
2023/01/11 19:05:12;;;;;;;9.50;2.00;;;9.40;99.90;;;;;;5092370;28;20043;-67
2023/01/11 19:07:37;;;;;;;14.07;2.72;;;9.40;99.90;;;;;;5093840;28;20020;-66
2023/01/11 19:10:04;;;;;;;11.10;2.78;;;9.40;99.90;;;;;;5092090;28;20386;-66
2023/01/11 19:12:29;;;;;;;13.00;2.50;;;9.30;99.90;;;;;;5092538;28;20073;-65
2023/01/11 19:14:55;;;;;;;9.77;2.35;;;9.30;99.90;;;;;;5093158;28;20384;-66
2023/01/11 19:17:20;;;;;;;11.15;2.17;;;9.40;99.90;;;;;;5093411;28;20449;-66
2023/01/11 19:19:46;;;;;;;10.30;2.72;;;9.30;99.90;;;;;;5092359;28;20097;-65
2023/01/11 19:22:12;;;;;;;6.10;1.73;;;9.30;99.90;;;;;;5093141;28;20020;-65
2023/01/11 19:24:38;;;;;;;10.60;2.95;;;9.30;99.90;;;;;;5093057;28;20020;-65
2023/01/11 19:27:04;;;;;;;13.88;2.88;;;9.30;99.90;;;;;;5090914;28;20032;-66
2023/01/11 19:29:30;;;;;;;9.13;2.60;;;9.30;99.90;;;;;;5091344;28;20024;-64
2023/01/11 19:31:56;;;;;;;17.08;2.50;;;9.30;99.90;;;;;;5092408;28;20051;-65
2023/01/11 19:34:22;;;;;;;10.32;2.45;;;9.30;99.90;;;;;;5092537;28;20028;-67
2023/01/11 19:36:49;;;;;;;8.23;2.70;;;9.30;99.90;;;;;;5092657;28;20026;-64
2023/01/11 19:39:15;;;;;;;9.23;2.78;;;9.30;99.90;;;;;;5091825;28;20081;-65
2023/01/11 19:42:01;;;;;;;7.07;2.00;;;9.30;99.90;;;;;;5092384;28;20043;-65
2023/01/11 19:44:30;;;;;;;9.57;2.50;;;9.30;99.90;;;;;;5091173;28;20016;-66
2023/01/11 19:46:56;;;;;;;10.90;2.38;;;9.20;99.90;;;;;;5090752;28;20035;-65
2023/01/11 19:49:22;;;;;;;10.65;2.80;;;9.20;99.90;;;;;;5092497;28;20031;-67
2023/01/11 19:51:48;;;;;;;12.65;2.92;;;9.10;99.90;;;;;;5092675;28;20026;-66
2023/01/11 19:54:15;;;;;;;6.35;1.80;;;9.10;99.90;;;;;;5090539;28;20102;-66
2023/01/11 19:56:41;;;;;;;11.48;2.40;;;9.00;99.90;;;;;;5090324;28;20032;-68
2023/01/11 19:59:07;;;;;;;8.18;2.28;;;9.00;99.90;;;;;;5090317;28;20111;-66
2023/01/11 20:01:33;;;;;;;10.50;2.30;;;8.90;99.90;;;;;;5091539;28;20119;-67
2023/01/11 20:03:58;;;;;;;9.25;2.33;;;9.00;99.90;;;;;;5092347;28;20028;-66
2023/01/11 20:06:24;;;;;;;17.25;2.40;;;9.00;99.90;;;;;;5084327;28;20021;-66
2023/01/11 20:08:50;;;;;;;8.43;1.92;;;8.90;99.90;;;;;;5071568;28;20074;-68
2023/01/11 20:11:17;;;;;;;8.70;2.65;;;8.90;99.90;;;;;;5072393;28;20048;-66
2023/01/11 20:13:49;;;;;;;11.90;2.15;;;8.80;99.90;;;;;;5072180;28;20028;-66
2023/01/11 20:16:16;;;;;;;11.10;2.85;;;8.80;99.90;;;;;;5071834;28;20035;-66
2023/01/11 20:18:42;;;;;;;13.80;3.33;;;8.80;99.90;;;;;;5062116;28;20185;-66
2023/01/11 20:21:12;;;;;;;7.82;2.78;;;8.80;99.90;;;;;;5052495;28;20045;-67
2023/01/11 20:23:38;;;;;;;13.60;2.55;;;8.70;99.90;;;;;;5082952;28;20024;-67
2023/01/11 20:26:06;;;;;;;14.65;2.55;;;8.70;99.90;;;;;;5091068;28;20043;-66
2023/01/11 20:28:32;;;;;;;10.40;2.10;;;8.70;99.90;;;;;;5092563;28;20020;-67
2023/01/11 20:30:58;;;;;;;7.20;2.25;;;8.60;99.90;;;;;;5091490;28;20062;-68
2023/01/11 20:33:25;;;;;;;7.85;1.98;;;8.60;99.90;;;;;;5092108;28;20055;-67
2023/01/11 20:35:51;;;;;;;10.95;2.95;;;8.60;99.90;;;;;;5092231;28;20021;-66
2023/01/11 20:38:17;;;;;;;6.60;2.55;;;8.60;99.90;;;;;;5091585;28;20027;-67
2023/01/11 20:40:43;;;;;;;9.88;2.25;;;8.60;99.90;;;;;;5090537;28;20032;-66
2023/01/11 20:43:12;;;;;;;16.00;2.97;;;8.50;99.90;;;;;;5091747;28;20099;-67
2023/01/11 20:45:41;;;;;;;13.98;2.13;;;8.50;99.90;;;;;;5091273;28;20104;-67
2023/01/11 20:48:07;;;;;;;10.00;2.03;;;8.50;99.90;;;;;;5092163;28;20393;-67
2023/01/11 20:50:34;;;;;;;9.55;2.10;;;8.50;99.90;;;;;;5091504;28;20562;-67
2023/01/11 20:52:59;;;;;;;9.65;3.08;;;8.40;99.90;;;;;;5092065;28;20016;-67
2023/01/11 20:55:26;;;;;;;13.40;2.50;;;8.40;99.90;;;;;;5092128;28;20024;-67
2023/01/11 20:57:52;;;;;;;12.90;2.33;;;8.40;99.90;;;;;;5093800;28;20020;-68
2023/01/11 21:00:18;;;;;;;11.65;2.40;;;8.40;99.90;;;;;;5077869;28;20440;-67
2023/01/11 21:02:47;;;;;;;13.13;2.70;;;8.40;99.90;;;;;;5074701;28;20032;-67
2023/01/11 21:05:13;;;;;;;6.72;2.08;;;8.40;99.90;;;;;;5075011;28;20024;-68
2023/01/11 21:07:38;;;;;;;11.27;2.22;;;8.40;99.90;;;;;;5071415;28;20021;-72
2023/01/11 21:10:04;;;;;;;15.23;2.45;;;8.40;99.90;;;;;;5054674;28;20444;-67
2023/01/11 21:12:30;;;;;;;12.10;2.55;;;8.40;99.90;;;;;;5053912;28;20064;-71
2023/01/11 21:14:55;;;;;;;7.25;2.67;;;8.40;99.90;;;;;;5054614;28;20032;-68
